createdAt,value
2023-03-05T00:00:35.894Z,50.30
2023-03-05T00:03:06.307Z,46.63
2023-03-05T00:05:36.570Z,53.33
2023-03-05T00:08:07.012Z,50.00
2023-03-05T00:10:36.933Z,49.00
2023-03-05T00:13:07.530Z,46.60
2023-03-05T00:15:44.443Z,49.78
2023-03-05T00:18:14.938Z,45.40
2023-03-05T00:20:45.680Z,50.65
2023-03-05T00:23:16.180Z,49.53
2023-03-05T00:25:47.521Z,49.00
2023-03-05T00:28:18.018Z,48.53
2023-03-05T00:30:48.258Z,53.83
2023-03-05T00:33:18.441Z,50.42
2023-03-05T00:35:49.522Z,50.97
2023-03-05T00:38:19.813Z,44.67
2023-03-05T00:40:52.882Z,44.75
2023-03-05T00:43:23.103Z,47.83
2023-03-05T00:45:53.207Z,44.08
2023-03-05T00:48:24.045Z,47.85
2023-03-05T00:50:54.522Z,46.22
2023-03-05T00:53:25.144Z,48.67
2023-03-05T00:55:55.444Z,44.78
2023-03-05T00:58:25.680Z,53.75
2023-03-05T01:00:59.494Z,44.72
2023-03-05T01:03:30.802Z,48.25
2023-03-05T01:06:02.258Z,49.28
2023-03-05T01:08:32.477Z,43.58
2023-03-05T01:11:02.797Z,48.38
2023-03-05T01:13:33.055Z,47.55
2023-03-05T01:16:04.348Z,46.13
2023-03-05T01:18:35.176Z,46.03
2023-03-05T01:21:06.475Z,41.85
2023-03-05T01:23:38.907Z,45.38
2023-03-05T01:26:10.128Z,42.38
2023-03-05T01:28:44.169Z,40.00
2023-03-05T01:31:14.783Z,47.95
2023-03-05T01:33:45.032Z,42.78
2023-03-05T01:36:18.239Z,41.05
2023-03-05T01:38:49.535Z,41.38
2023-03-05T01:41:20.691Z,40.15
2023-03-05T01:43:51.505Z,39.85
2023-03-05T01:46:39.640Z,38.15
2023-03-05T01:49:31.422Z,39.42
2023-03-05T01:52:15.531Z,39.67
2023-03-05T01:54:58.237Z,36.17
2023-03-05T01:57:35.277Z,36.10
2023-03-05T02:00:12.547Z,40.42
2023-03-05T02:02:48.937Z,37.65
2023-03-05T02:05:22.326Z,40.33
2023-03-05T02:07:52.638Z,36.83
2023-03-05T02:10:28.970Z,41.45
2023-03-05T02:13:02.560Z,45.70
2023-03-05T02:15:34.198Z,39.95
2023-03-05T02:18:04.646Z,41.00
2023-03-05T02:20:48.205Z,43.78
2023-03-05T02:23:19.678Z,40.33
2023-03-05T02:25:49.920Z,42.80
2023-03-05T02:28:33.561Z,41.78
2023-03-05T02:31:03.988Z,41.67
2023-03-05T02:33:34.197Z,40.92
2023-03-05T02:36:04.732Z,42.05
2023-03-05T02:38:34.938Z,43.67
2023-03-05T02:41:05.323Z,38.83
2023-03-05T02:43:35.234Z,42.75
2023-03-05T02:46:06.403Z,45.45
2023-03-05T02:48:37.056Z,42.78
2023-03-05T02:51:08.852Z,44.40
2023-03-05T02:53:39.072Z,44.60
2023-03-05T02:56:09.447Z,40.88
2023-03-05T02:58:39.949Z,46.72
2023-03-05T03:01:11.862Z,42.78
2023-03-05T03:03:42.046Z,40.83
2023-03-05T03:06:12.318Z,46.97
2023-03-05T03:08:42.523Z,39.72
2023-03-05T03:11:17.143Z,39.63
2023-03-05T03:13:47.986Z,39.03
2023-03-05T03:16:18.798Z,45.70
2023-03-05T03:18:50.306Z,42.08
2023-03-05T03:21:25.113Z,44.15
2023-03-05T03:23:55.727Z,41.70
2023-03-05T03:26:25.836Z,38.88
2023-03-05T03:28:56.076Z,35.63
2023-03-05T03:31:26.494Z,37.95
2023-03-05T03:33:56.983Z,37.83
2023-03-05T03:36:27.316Z,37.58
2023-03-05T03:38:57.591Z,38.53
2023-03-05T03:41:27.648Z,39.17
2023-03-05T03:43:57.672Z,47.03
2023-03-05T03:46:27.800Z,36.53
2023-03-05T03:48:58.312Z,36.45
2023-03-05T03:51:28.992Z,38.40
2023-03-05T03:53:59.221Z,36.35
2023-03-05T03:56:29.456Z,38.33
2023-03-05T03:58:59.902Z,39.60
2023-03-05T04:01:30.267Z,40.15
2023-03-05T04:04:00.779Z,35.58
2023-03-05T04:06:31.280Z,37.85
2023-03-05T04:09:01.566Z,37.42
2023-03-05T04:11:31.506Z,37.60
2023-03-05T04:14:01.848Z,38.83
2023-03-05T04:16:32.098Z,40.03
2023-03-05T04:19:02.228Z,40.92
2023-03-05T04:21:32.432Z,34.55
2023-03-05T04:24:02.847Z,37.78
2023-03-05T04:26:33.244Z,36.88
2023-03-05T04:29:03.671Z,40.30
2023-03-05T04:31:34.217Z,68.95
2023-03-05T04:34:04.546Z,38.75
2023-03-05T04:36:34.763Z,39.35
2023-03-05T04:39:04.978Z,38.47
2023-03-05T04:41:35.024Z,40.10
2023-03-05T04:44:05.732Z,37.13
2023-03-05T04:46:36.132Z,39.75
2023-03-05T04:49:06.437Z,35.50
2023-03-05T04:51:36.788Z,38.50
2023-03-05T04:54:07.408Z,37.83
2023-03-05T04:56:37.828Z,43.72
2023-03-05T04:59:08.260Z,36.40
2023-03-05T05:01:39.054Z,39.55
2023-03-05T05:04:09.609Z,39.65
2023-03-05T05:06:39.823Z,37.05
2023-03-05T05:09:10.276Z,39.20
2023-03-05T05:11:41.506Z,40.42
2023-03-05T05:14:11.588Z,38.85
2023-03-05T05:16:41.474Z,40.08
2023-03-05T05:19:11.864Z,36.50
2023-03-05T05:21:42.495Z,45.17
2023-03-05T05:24:12.588Z,39.10
2023-03-05T05:26:42.435Z,38.65
2023-03-05T05:29:12.533Z,37.50
2023-03-05T05:31:43.497Z,37.85
2023-03-05T05:34:13.942Z,38.53
2023-03-05T05:36:44.029Z,35.47
2023-03-05T05:39:14.018Z,34.75
2023-03-05T05:41:44.021Z,41.83
2023-03-05T05:44:14.191Z,39.88
2023-03-05T05:46:44.369Z,37.85
2023-03-05T05:49:14.812Z,35.97
2023-03-05T05:51:44.664Z,37.33
2023-03-05T05:54:16.857Z,37.67
2023-03-05T05:56:47.261Z,41.67
2023-03-05T05:59:17.306Z,38.88
2023-03-05T06:01:47.377Z,46.17
2023-03-05T06:04:17.576Z,38.70
2023-03-05T06:06:47.947Z,39.00
2023-03-05T06:09:18.346Z,38.58
2023-03-05T06:11:48.567Z,40.65
2023-03-05T06:14:18.689Z,42.13
2023-03-05T06:16:48.988Z,39.92
2023-03-05T06:19:19.225Z,36.63
2023-03-05T06:21:49.355Z,37.28
2023-03-05T06:24:20.852Z,38.58
2023-03-05T06:26:51.136Z,35.70
2023-03-05T06:29:21.303Z,41.45
2023-03-05T06:31:51.533Z,40.63
2023-03-05T06:34:21.687Z,44.40
2023-03-05T06:36:51.650Z,41.38
2023-03-05T06:39:21.697Z,42.88
2023-03-05T06:41:53.842Z,38.75
2023-03-05T06:44:23.943Z,39.17
2023-03-05T06:46:54.393Z,41.88
2023-03-05T06:49:25.199Z,41.03
2023-03-05T06:51:55.886Z,42.90
2023-03-05T06:54:26.218Z,41.28
2023-03-05T06:56:56.446Z,40.53
2023-03-05T06:59:26.834Z,39.75
2023-03-05T07:01:57.187Z,46.45
2023-03-05T07:04:27.327Z,50.78
2023-03-05T07:06:58.699Z,50.55
2023-03-05T07:09:28.889Z,41.88
2023-03-05T07:11:59.339Z,43.50
2023-03-05T07:14:29.433Z,35.53
2023-03-05T07:16:59.642Z,39.80
2023-03-05T07:19:29.741Z,45.40
2023-03-05T07:21:59.644Z,47.22
2023-03-05T07:24:31.656Z,42.53
2023-03-05T07:27:02.029Z,44.58
2023-03-05T07:29:32.438Z,39.08
2023-03-05T07:32:02.621Z,42.55
2023-03-05T07:34:33.059Z,43.88
2023-03-05T07:37:03.528Z,44.30
2023-03-05T07:39:33.667Z,47.13
2023-03-05T07:42:03.781Z,47.80
2023-03-05T07:44:50.740Z,45.88
2023-03-05T07:47:21.509Z,43.47
2023-03-05T07:49:52.456Z,48.65
2023-03-05T07:52:22.693Z,47.25
2023-03-05T07:54:52.813Z,50.55
2023-03-05T07:57:22.676Z,50.33
2023-03-05T07:59:53.192Z,47.75
2023-03-05T08:02:23.960Z,46.10
2023-03-05T08:04:54.062Z,45.20
2023-03-05T08:07:24.139Z,50.65
2023-03-05T08:09:54.318Z,56.78
2023-03-05T08:12:24.845Z,45.97
2023-03-05T08:14:55.263Z,53.40
2023-03-05T08:17:25.583Z,49.80
2023-03-05T08:19:59.236Z,47.53
2023-03-05T08:22:29.450Z,49.30
2023-03-05T08:24:59.530Z,51.63
2023-03-05T08:27:30.078Z,48.10
2023-03-05T08:30:00.465Z,54.88
2023-03-05T08:32:30.883Z,61.20
2023-03-05T08:35:01.139Z,57.78
2023-03-05T08:37:31.565Z,54.50
2023-03-05T08:40:01.986Z,52.53
2023-03-05T08:42:32.075Z,51.65
2023-03-05T08:45:02.331Z,55.70
2023-03-05T08:47:32.453Z,50.67
2023-03-05T08:50:02.655Z,51.65
2023-03-05T08:52:32.850Z,49.88
2023-03-05T08:55:03.283Z,53.85
2023-03-05T08:57:33.375Z,54.63
2023-03-05T09:00:03.768Z,56.45
2023-03-05T09:02:33.856Z,49.17
2023-03-05T09:05:03.767Z,52.88
2023-03-05T09:07:33.864Z,51.10
2023-03-05T09:10:04.081Z,52.30
2023-03-05T09:12:34.872Z,54.35
2023-03-05T09:15:05.909Z,47.67
2023-03-05T09:17:36.921Z,55.30
2023-03-05T09:20:09.493Z,54.75
2023-03-05T09:22:39.348Z,50.80
2023-03-05T09:25:11.033Z,49.70
2023-03-05T09:27:41.718Z,53.50
2023-03-05T09:30:13.651Z,53.90
2023-03-05T09:32:43.906Z,48.75
2023-03-05T09:35:14.302Z,50.00
2023-03-05T09:37:44.394Z,53.40
2023-03-05T09:40:19.971Z,57.58
2023-03-05T09:43:23.565Z,50.75
2023-03-05T09:46:33.061Z,51.22
2023-03-05T09:49:31.498Z,50.13
2023-03-05T09:52:15.647Z,56.58
2023-03-05T09:54:49.791Z,47.72
2023-03-05T09:57:24.781Z,49.97
2023-03-05T10:00:01.386Z,54.80
2023-03-05T10:02:49.820Z,55.70
2023-03-05T10:05:39.538Z,62.53
2023-03-05T10:08:13.038Z,55.13
2023-03-05T10:10:51.925Z,60.70
2023-03-05T10:13:44.432Z,57.53
2023-03-05T10:16:45.895Z,55.28
2023-03-05T10:19:55.272Z,61.28
2023-03-05T10:22:33.234Z,53.63
2023-03-05T10:25:28.116Z,59.15
2023-03-05T10:28:07.827Z,56.90
2023-03-05T10:31:05.883Z,51.10
2023-03-05T10:34:01.387Z,59.40
2023-03-05T10:37:11.007Z,64.70
2023-03-05T10:40:20.233Z,79.55
2023-03-05T10:43:06.811Z,77.97
2023-03-05T10:45:48.004Z,68.82
2023-03-05T10:48:41.079Z,67.65
2023-03-05T10:51:50.301Z,63.72
2023-03-05T10:54:32.451Z,63.38
2023-03-05T10:57:24.374Z,69.85
2023-03-05T11:00:30.493Z,56.78
2023-03-05T11:03:10.175Z,58.20
2023-03-05T11:05:48.724Z,50.45
2023-03-05T11:08:38.721Z,56.05
2023-03-05T11:11:19.768Z,49.45
2023-03-05T11:14:08.306Z,49.88
2023-03-05T11:16:50.353Z,55.53
2023-03-05T11:19:26.559Z,56.67
2023-03-05T11:22:22.688Z,56.22
2023-03-05T11:25:22.873Z,56.05
2023-03-05T11:27:58.666Z,58.45
2023-03-05T11:30:38.037Z,66.75
2023-03-05T11:33:28.629Z,64.18
2023-03-05T11:36:29.023Z,87.25
2023-03-05T11:39:19.565Z,82.05
2023-03-05T11:42:02.427Z,123.45
2023-03-05T11:44:57.373Z,115.05
2023-03-05T11:47:50.694Z,121.07
2023-03-05T11:50:42.833Z,109.18
2023-03-05T11:53:27.160Z,99.93
2023-03-05T11:56:07.591Z,95.85
2023-03-05T11:59:11.139Z,80.05
2023-03-05T12:01:50.790Z,79.50
2023-03-05T12:04:22.769Z,80.25
2023-03-05T12:07:02.247Z,75.88
2023-03-05T12:09:53.543Z,70.10
2023-03-05T12:12:53.103Z,76.60
2023-03-05T12:16:02.588Z,75.18
2023-03-05T12:19:14.868Z,76.07
2023-03-05T12:21:46.916Z,77.07
2023-03-05T12:24:38.136Z,84.25
2023-03-05T12:27:11.591Z,81.78
2023-03-05T12:29:48.554Z,77.90
2023-03-05T12:32:55.594Z,84.65
2023-03-05T12:35:48.650Z,86.68
2023-03-05T12:38:39.612Z,82.90
2023-03-05T12:41:40.438Z,76.78
2023-03-05T12:44:20.358Z,100.47
2023-03-05T12:47:27.990Z,98.20
2023-03-05T12:49:59.712Z,95.47
2023-03-05T12:52:34.612Z,96.78
2023-03-05T12:55:19.502Z,101.50
2023-03-05T12:57:54.659Z,94.47
2023-03-05T13:00:41.169Z,96.70
2023-03-05T13:03:19.526Z,109.90
2023-03-05T13:05:56.730Z,126.45
2023-03-05T13:08:33.212Z,118.63
2023-03-05T13:11:08.062Z,124.72
2023-03-05T13:13:46.614Z,119.20
2023-03-05T13:16:40.661Z,135.25
2023-03-05T13:19:19.409Z,149.27
2023-03-05T13:22:00.463Z,160.85
2023-03-05T13:24:31.548Z,168.18
2023-03-05T13:27:01.898Z,190.13
2023-03-05T13:29:32.779Z,168.68
2023-03-05T13:32:06.336Z,165.38
2023-03-05T13:34:47.141Z,177.00
2023-03-05T13:37:21.784Z,167.88
2023-03-05T13:40:00.671Z,164.68
2023-03-05T13:42:36.037Z,175.27
2023-03-05T13:45:28.669Z,178.43
2023-03-05T13:48:05.952Z,374.73
2023-03-05T13:50:41.777Z,165.18
2023-03-05T13:53:38.623Z,156.95
2023-03-05T13:56:15.645Z,161.70
2023-03-05T13:58:55.384Z,169.23
2023-03-05T14:01:40.113Z,174.52
2023-03-05T14:04:21.636Z,176.77
2023-03-05T14:07:31.036Z,171.25
2023-03-05T14:10:01.602Z,167.50
2023-03-05T14:12:42.338Z,167.15
2023-03-05T14:15:25.846Z,168.50
2023-03-05T14:18:21.061Z,153.48
2023-03-05T14:21:12.783Z,154.05
2023-03-05T14:23:51.172Z,153.20
2023-03-05T14:26:39.937Z,159.43
2023-03-05T14:29:19.894Z,175.13
2023-03-05T14:31:58.123Z,92.03
2023-03-05T14:34:44.174Z,94.40
2023-03-05T14:37:38.763Z,86.13
2023-03-05T14:40:22.308Z,71.25
2023-03-05T14:42:58.734Z,63.53
2023-03-05T14:45:35.350Z,131.80
2023-03-05T14:48:09.382Z,70.47
2023-03-05T14:50:45.252Z,57.15
2023-03-05T14:53:22.340Z,55.67
2023-03-05T14:55:58.854Z,68.85
2023-03-05T14:58:33.882Z,58.40
2023-03-05T15:01:04.804Z,68.80
2023-03-05T15:03:35.169Z,59.53
2023-03-05T15:06:05.452Z,67.78
2023-03-05T15:08:38.507Z,63.15
2023-03-05T15:11:11.085Z,67.53
2023-03-05T15:13:41.680Z,63.47
2023-03-05T15:16:17.241Z,58.45
2023-03-05T15:18:47.614Z,65.20
2023-03-05T15:21:18.147Z,67.28
2023-03-05T15:23:48.317Z,78.60
2023-03-05T15:26:18.508Z,59.60
2023-03-05T15:28:48.586Z,60.92
2023-03-05T15:31:19.975Z,61.00
2023-03-05T15:33:50.090Z,61.38
2023-03-05T15:36:20.346Z,62.20
2023-03-05T15:38:50.559Z,59.38
2023-03-05T15:41:20.582Z,72.22
2023-03-05T15:43:50.664Z,71.07
2023-03-05T15:46:20.563Z,65.37
2023-03-05T15:48:51.784Z,64.93
2023-03-05T15:51:22.784Z,65.75
2023-03-05T15:53:52.906Z,57.35
2023-03-05T15:56:23.019Z,63.30
2023-03-05T15:58:53.280Z,63.80
2023-03-05T16:01:24.848Z,63.42
2023-03-05T16:03:55.218Z,60.65
2023-03-05T16:06:26.944Z,59.33
2023-03-05T16:09:02.168Z,58.70
2023-03-05T16:11:35.340Z,62.65
2023-03-05T16:14:09.356Z,62.55
2023-03-05T16:16:41.096Z,60.70
2023-03-05T16:19:13.169Z,63.20
2023-03-05T16:21:43.347Z,56.95
2023-03-05T16:24:13.612Z,60.80
2023-03-05T16:26:44.794Z,60.15
2023-03-05T16:29:15.637Z,56.85
2023-03-05T16:31:46.917Z,61.78
2023-03-05T16:34:17.827Z,61.47
2023-03-05T16:36:52.596Z,60.67
2023-03-05T16:39:23.913Z,53.00
2023-03-05T16:41:54.346Z,55.90
2023-03-05T16:44:25.036Z,58.60
2023-03-05T16:46:55.613Z,53.95
2023-03-05T16:49:25.812Z,57.20
2023-03-05T16:51:56.601Z,56.70
2023-03-05T16:54:26.904Z,53.47
2023-03-05T16:59:28.087Z,59.15
2023-03-05T17:01:58.232Z,58.30
2023-03-05T17:04:28.738Z,52.40
2023-03-05T17:06:59.422Z,55.05
2023-03-05T17:09:29.886Z,53.67
2023-03-05T17:12:00.162Z,50.63
2023-03-05T17:14:30.398Z,46.75
2023-03-05T17:17:00.654Z,47.97
2023-03-05T17:19:30.892Z,46.35
2023-03-05T17:22:01.057Z,45.38
2023-03-05T17:24:32.004Z,44.17
2023-03-05T17:27:02.897Z,45.95
2023-03-05T17:29:33.365Z,46.33
2023-03-05T17:32:03.606Z,46.45
2023-03-05T17:34:36.508Z,46.88
2023-03-05T17:37:07.778Z,42.97
2023-03-05T17:39:39.513Z,45.10
2023-03-05T17:42:09.800Z,48.47
2023-03-05T17:44:40.015Z,46.63
2023-03-05T17:47:10.567Z,42.17
2023-03-05T17:49:40.635Z,38.10
2023-03-05T17:52:10.778Z,39.95
2023-03-05T17:54:40.686Z,36.85
2023-03-05T17:57:11.187Z,39.97
2023-03-05T17:59:42.136Z,38.85
2023-03-05T18:02:14.569Z,37.03
2023-03-05T18:04:45.417Z,33.47
2023-03-05T18:07:16.061Z,37.60
2023-03-05T18:09:46.261Z,35.92
2023-03-05T18:12:16.361Z,35.05
2023-03-05T18:14:46.492Z,29.27
2023-03-05T18:17:16.607Z,33.10
2023-03-05T18:19:47.003Z,35.15
2023-03-05T18:22:17.171Z,32.83
2023-03-05T18:24:47.291Z,31.92
2023-03-05T18:27:18.245Z,29.20
2023-03-05T18:29:48.978Z,31.30
2023-03-05T18:32:19.279Z,30.48
2023-03-05T18:34:50.646Z,35.88
2023-03-05T18:37:20.843Z,31.92
2023-03-05T18:39:50.701Z,34.05
2023-03-05T18:42:20.942Z,34.72
2023-03-05T18:44:50.867Z,36.88
2023-03-05T18:47:20.934Z,35.20
2023-03-05T18:49:50.998Z,28.02
2023-03-05T18:52:21.095Z,30.20
2023-03-05T18:54:51.262Z,30.40
2023-03-05T18:57:21.340Z,29.33
2023-03-05T18:59:51.395Z,33.65
2023-03-05T19:02:21.993Z,28.42
2023-03-05T19:04:52.293Z,28.92
2023-03-05T19:07:22.739Z,27.55
2023-03-05T19:09:55.815Z,28.35
2023-03-05T19:12:36.615Z,32.28
2023-03-05T19:15:08.787Z,30.10
2023-03-05T19:17:39.117Z,28.58
2023-03-05T19:20:10.247Z,28.02
2023-03-05T19:22:40.347Z,26.85
2023-03-05T19:25:12.698Z,32.80
2023-03-05T19:27:43.251Z,31.33
2023-03-05T19:30:14.317Z,31.00
2023-03-05T19:32:45.057Z,27.90
2023-03-05T19:35:20.375Z,29.40
2023-03-05T19:37:50.624Z,30.88
2023-03-05T19:40:21.407Z,26.98
2023-03-05T19:42:51.927Z,28.40
2023-03-05T19:45:22.292Z,28.80
2023-03-05T19:47:53.119Z,31.13
2023-03-05T19:50:23.774Z,31.15
2023-03-05T19:52:53.947Z,28.67
2023-03-05T19:55:24.431Z,31.65
2023-03-05T19:57:54.591Z,30.67
2023-03-05T20:00:27.792Z,31.17
2023-03-05T20:02:58.215Z,30.95
2023-03-05T20:05:28.908Z,30.13
2023-03-05T20:07:59.366Z,31.50
2023-03-05T20:10:29.626Z,29.92
2023-03-05T20:13:00.100Z,31.50
2023-03-05T20:15:30.834Z,34.70
2023-03-05T20:18:01.250Z,32.33
2023-03-05T20:20:32.588Z,30.55
2023-03-05T20:23:02.638Z,32.70
2023-03-05T20:25:33.318Z,36.53
2023-03-05T20:28:03.557Z,31.80
2023-03-05T20:30:33.710Z,33.92
2023-03-05T20:33:05.697Z,37.17
2023-03-05T20:35:36.315Z,35.28
2023-03-05T20:38:30.277Z,35.28
2023-03-05T20:41:06.334Z,40.70
2023-03-05T20:43:42.380Z,40.03
2023-03-05T20:46:24.716Z,36.05
2023-03-05T20:48:58.065Z,40.17
2023-03-05T20:51:31.242Z,35.00
2023-03-05T20:54:05.475Z,33.65
2023-03-05T20:56:36.787Z,31.65
2023-03-05T20:59:10.205Z,32.20
2023-03-05T21:01:42.389Z,34.92
2023-03-05T21:04:12.884Z,28.08
2023-03-05T21:06:43.340Z,29.88
2023-03-05T21:09:13.543Z,30.05
2023-03-05T21:11:43.603Z,28.30
2023-03-05T21:14:13.968Z,27.90
2023-03-05T21:16:44.106Z,30.90
2023-03-05T21:19:14.010Z,29.23
2023-03-05T21:21:47.139Z,28.90
2023-03-05T21:24:32.562Z,32.85
2023-03-05T21:27:22.498Z,30.38
2023-03-05T21:29:52.879Z,32.47
2023-03-05T21:32:23.009Z,27.58
2023-03-05T21:34:53.371Z,30.75
2023-03-05T21:37:23.734Z,30.73
2023-03-05T21:39:53.780Z,29.67
2023-03-05T21:42:23.921Z,31.85
2023-03-05T21:44:54.107Z,28.05
2023-03-05T21:47:24.118Z,31.95
2023-03-05T21:49:54.549Z,35.95
2023-03-05T21:52:25.016Z,34.60
2023-03-05T21:54:58.589Z,33.47
2023-03-05T21:57:29.348Z,35.50
2023-03-05T22:00:00.092Z,38.20
2023-03-05T22:02:30.588Z,37.92
2023-03-05T22:05:01.432Z,43.28
2023-03-05T22:07:31.921Z,42.00
2023-03-05T22:10:02.311Z,46.40
2023-03-05T22:12:55.285Z,46.00
2023-03-05T22:15:32.032Z,76.28
2023-03-05T22:18:02.863Z,86.85
2023-03-05T22:20:36.476Z,87.85
2023-03-05T22:23:07.611Z,82.22
2023-03-05T22:25:38.455Z,96.03
2023-03-05T22:28:10.832Z,82.53
2023-03-05T22:30:47.882Z,70.68
2023-03-05T22:33:18.005Z,79.72
2023-03-05T22:35:48.423Z,76.85
2023-03-05T22:38:19.178Z,77.22
2023-03-05T22:40:50.835Z,71.25
2023-03-05T22:43:22.424Z,67.22
2023-03-05T22:45:52.619Z,93.10
2023-03-05T22:48:23.057Z,103.00
2023-03-05T22:50:57.629Z,104.80
2023-03-05T22:53:28.339Z,73.22
2023-03-05T22:55:59.463Z,65.45
2023-03-05T22:58:29.768Z,69.88
2023-03-05T23:01:00.055Z,98.95
2023-03-05T23:03:30.569Z,67.35
2023-03-05T23:06:01.002Z,60.63
2023-03-05T23:08:31.518Z,56.85
2023-03-05T23:11:02.388Z,57.75
2023-03-05T23:13:32.462Z,68.40
2023-03-05T23:16:02.690Z,55.85
2023-03-05T23:18:32.950Z,54.15
2023-03-05T23:21:03.417Z,53.80
2023-03-05T23:23:33.788Z,54.60
2023-03-05T23:26:04.555Z,53.83
2023-03-05T23:28:35.016Z,47.53
2023-03-05T23:31:05.909Z,50.67
2023-03-05T23:33:36.380Z,41.95
2023-03-05T23:36:06.898Z,49.70
2023-03-05T23:38:38.259Z,43.80
2023-03-05T23:41:11.036Z,50.78
2023-03-05T23:43:41.510Z,47.55
2023-03-05T23:46:15.123Z,55.95
2023-03-05T23:48:45.566Z,53.03
2023-03-05T23:51:15.492Z,53.08
2023-03-05T23:53:45.675Z,50.83
2023-03-05T23:56:16.499Z,54.35
2023-03-05T23:58:46.950Z,60.60
